createdAt,value
2023-10-20T00:00:51.005Z,31.20
2023-10-20T00:03:38.400Z,36.40
2023-10-20T00:06:25.804Z,35.00
2023-10-20T00:09:14.925Z,29.90
2023-10-20T00:12:02.487Z,26.40
2023-10-20T00:14:49.622Z,30.20
2023-10-20T00:17:36.930Z,30.90
2023-10-20T00:20:24.417Z,28.20
2023-10-20T00:23:11.585Z,29.00
2023-10-20T00:25:59.366Z,28.80
2023-10-20T00:28:46.533Z,28.50
2023-10-20T00:31:33.855Z,33.40
2023-10-20T00:34:21.078Z,27.50
2023-10-20T00:37:08.266Z,28.20
2023-10-20T00:39:56.226Z,25.80
2023-10-20T00:42:43.569Z,31.20
2023-10-20T00:45:30.945Z,25.80
2023-10-20T00:48:18.259Z,25.50
2023-10-20T00:51:06.349Z,26.00
2023-10-20T00:53:55.924Z,28.30
2023-10-20T00:56:43.297Z,25.50
2023-10-20T00:59:30.457Z,28.60
2023-10-20T01:02:49.867Z,26.90
2023-10-20T01:05:37.729Z,26.50
2023-10-20T01:08:24.981Z,27.10
2023-10-20T01:11:12.451Z,29.40
2023-10-20T01:14:01.461Z,29.40
2023-10-20T01:16:49.245Z,28.80
2023-10-20T01:19:37.749Z,26.80
2023-10-20T01:22:25.370Z,27.00
2023-10-20T01:25:12.675Z,30.10
2023-10-20T01:28:00.244Z,28.70
2023-10-20T01:30:48.133Z,29.20
2023-10-20T01:33:36.007Z,29.50
2023-10-20T01:36:23.313Z,28.40
2023-10-20T01:39:12.078Z,30.50
2023-10-20T01:41:59.233Z,27.80
2023-10-20T01:44:46.342Z,27.30
2023-10-20T01:47:33.581Z,29.00
2023-10-20T01:50:21.277Z,30.20
2023-10-20T01:53:08.564Z,26.30
2023-10-20T01:55:55.775Z,27.80
2023-10-20T01:58:43.031Z,44.40
2023-10-20T02:01:30.653Z,31.00
2023-10-20T02:04:18.360Z,28.30
2023-10-20T02:07:05.487Z,26.40
2023-10-20T02:09:52.634Z,24.80
2023-10-20T02:12:39.828Z,27.10
2023-10-20T02:15:27.145Z,26.20
2023-10-20T02:18:15.553Z,26.00
2023-10-20T02:21:04.249Z,25.50
2023-10-20T02:23:51.491Z,27.80
2023-10-20T02:26:39.561Z,27.80
2023-10-20T02:29:27.010Z,28.20
2023-10-20T02:32:14.422Z,27.20
2023-10-20T02:35:01.975Z,26.60
2023-10-20T02:37:49.679Z,27.30
2023-10-20T02:40:37.013Z,27.20
2023-10-20T02:43:24.866Z,27.10
2023-10-20T02:46:16.403Z,26.20
2023-10-20T02:49:04.879Z,28.70
2023-10-20T02:51:52.031Z,25.90
2023-10-20T02:54:39.374Z,27.10
2023-10-20T02:57:26.501Z,26.30
2023-10-20T03:00:18.707Z,25.30
2023-10-20T03:03:06.099Z,26.30
2023-10-20T03:05:53.337Z,29.10
2023-10-20T03:08:41.223Z,28.20
2023-10-20T03:11:28.619Z,27.80
2023-10-20T03:14:15.862Z,32.40
2023-10-20T03:17:03.247Z,25.10
2023-10-20T03:19:50.614Z,39.20
2023-10-20T03:22:37.973Z,26.50
2023-10-20T03:25:25.614Z,26.30
2023-10-20T03:28:13.107Z,29.70
2023-10-20T03:31:03.424Z,25.20
2023-10-20T03:33:50.934Z,27.40
2023-10-20T03:36:38.685Z,26.10
2023-10-20T03:39:27.522Z,23.40
2023-10-20T03:42:15.117Z,29.30
2023-10-20T03:45:09.133Z,26.30
2023-10-20T03:47:56.514Z,28.20
2023-10-20T03:50:44.896Z,27.00
2023-10-20T03:53:40.387Z,27.00
2023-10-20T03:56:28.683Z,26.40
2023-10-20T03:59:17.004Z,25.10
2023-10-20T04:02:04.368Z,24.60
2023-10-20T04:04:51.726Z,27.10
2023-10-20T04:07:39.076Z,24.90
2023-10-20T04:10:26.511Z,23.60
2023-10-20T04:13:13.684Z,27.50
2023-10-20T04:16:17.771Z,24.40
2023-10-20T04:19:06.898Z,23.30
2023-10-20T04:21:54.974Z,24.60
2023-10-20T04:24:42.709Z,25.30
2023-10-20T04:27:48.162Z,29.80
2023-10-20T04:30:54.727Z,24.80
2023-10-20T04:34:00.556Z,23.20
2023-10-20T04:37:08.566Z,24.50
2023-10-20T04:40:14.950Z,24.10
2023-10-20T04:43:25.292Z,27.20
2023-10-20T04:46:31.173Z,24.50
2023-10-20T04:49:36.990Z,25.80
2023-10-20T04:52:47.114Z,26.70
2023-10-20T04:55:53.000Z,28.00
2023-10-20T04:58:51.723Z,29.70
2023-10-20T05:01:48.948Z,25.30
2023-10-20T05:04:43.202Z,23.00
2023-10-20T05:07:31.195Z,30.20
2023-10-20T05:10:20.063Z,28.60
2023-10-20T05:13:07.238Z,23.00
2023-10-20T05:15:54.685Z,23.00
2023-10-20T05:18:43.065Z,25.80
2023-10-20T05:21:38.688Z,27.60
2023-10-20T05:24:26.223Z,23.40
2023-10-20T05:27:16.312Z,23.30
2023-10-20T05:31:04.345Z,25.20
2023-10-20T05:33:59.138Z,24.70
2023-10-20T05:36:46.357Z,24.00
2023-10-20T05:39:33.932Z,23.50
2023-10-20T05:42:21.401Z,23.10
2023-10-20T05:45:17.714Z,22.30
2023-10-20T05:48:06.520Z,22.60
2023-10-20T05:50:58.173Z,21.90
2023-10-20T05:53:45.427Z,21.40
2023-10-20T05:56:32.806Z,22.90
2023-10-20T05:59:20.001Z,21.10
2023-10-20T06:02:08.083Z,22.50
2023-10-20T06:04:55.461Z,22.30
2023-10-20T06:07:43.933Z,22.10
2023-10-20T06:10:31.121Z,23.20
2023-10-20T06:13:18.674Z,20.40
2023-10-20T06:16:11.767Z,24.70
2023-10-20T06:18:59.376Z,21.70
2023-10-20T06:21:46.768Z,27.00
2023-10-20T06:24:34.203Z,23.90
2023-10-20T06:27:21.611Z,22.80
2023-10-20T06:30:15.211Z,22.60
2023-10-20T06:33:17.339Z,26.50
2023-10-20T06:36:11.442Z,22.20
2023-10-20T06:38:58.662Z,26.40
2023-10-20T06:41:45.979Z,22.70
2023-10-20T06:44:35.400Z,22.80
2023-10-20T06:47:22.691Z,21.20
2023-10-20T06:50:12.732Z,19.20
2023-10-20T06:53:00.178Z,20.00
2023-10-20T06:56:04.767Z,21.40
2023-10-20T06:58:55.193Z,20.20
2023-10-20T07:01:45.192Z,19.90
2023-10-20T07:04:33.380Z,21.40
2023-10-20T07:07:20.843Z,21.10
2023-10-20T07:10:11.098Z,24.60
2023-10-20T07:12:58.267Z,24.60
2023-10-20T07:15:45.482Z,25.30
2023-10-20T07:18:32.718Z,22.70
2023-10-20T07:21:19.938Z,19.80
2023-10-20T07:24:07.678Z,25.00
2023-10-20T07:26:55.213Z,21.80
2023-10-20T07:29:45.660Z,22.50
2023-10-20T07:32:34.680Z,19.70
2023-10-20T07:35:22.364Z,20.00
2023-10-20T07:38:09.597Z,21.00
2023-10-20T07:40:56.810Z,20.10
2023-10-20T07:43:43.963Z,23.40
2023-10-20T07:46:31.810Z,19.70
2023-10-20T07:49:18.965Z,26.40
2023-10-20T07:52:06.144Z,22.20
2023-10-20T07:54:53.386Z,19.80
2023-10-20T07:57:40.517Z,23.90
2023-10-20T08:00:27.737Z,21.00
2023-10-20T08:03:15.193Z,19.20
2023-10-20T08:06:03.842Z,18.80
2023-10-20T08:08:51.554Z,17.30
2023-10-20T08:11:40.117Z,20.00
2023-10-20T08:14:27.410Z,18.30
2023-10-20T08:17:14.888Z,16.90
2023-10-20T08:20:02.186Z,17.10
2023-10-20T08:22:49.418Z,16.70
2023-10-20T08:25:38.151Z,18.70
2023-10-20T08:28:28.093Z,17.60
2023-10-20T08:31:18.054Z,19.50
2023-10-20T08:34:06.116Z,20.60
2023-10-20T08:36:53.379Z,19.50
2023-10-20T08:39:40.521Z,20.10
2023-10-20T08:42:29.686Z,18.20
2023-10-20T08:45:16.825Z,18.70
2023-10-20T08:48:06.535Z,20.10
2023-10-20T08:50:56.893Z,18.00
2023-10-20T08:53:45.390Z,19.00
2023-10-20T08:56:32.572Z,18.10
2023-10-20T08:59:19.882Z,20.50
2023-10-20T09:02:08.769Z,23.50
2023-10-20T09:04:55.933Z,19.10
2023-10-20T09:07:53.782Z,17.20
2023-10-20T09:10:46.170Z,19.60
2023-10-20T09:13:35.212Z,22.50
2023-10-20T09:16:23.751Z,21.60
2023-10-20T09:19:11.906Z,19.80
2023-10-20T09:21:59.217Z,18.80
2023-10-20T09:24:48.608Z,15.90
2023-10-20T09:27:36.603Z,19.90
2023-10-20T09:30:24.932Z,21.70
2023-10-20T09:33:14.744Z,20.90
2023-10-20T09:36:02.694Z,19.90
2023-10-20T09:38:52.469Z,18.60
2023-10-20T09:41:45.283Z,19.90
2023-10-20T09:44:48.201Z,19.80
2023-10-20T09:47:37.491Z,21.60
2023-10-20T09:50:24.898Z,19.20
2023-10-20T09:53:12.360Z,21.20
2023-10-20T09:55:59.651Z,18.90
2023-10-20T09:58:47.017Z,20.80
2023-10-20T10:01:34.279Z,19.10
2023-10-20T10:04:31.504Z,21.90
2023-10-20T10:07:27.635Z,25.30
2023-10-20T10:10:21.319Z,21.30
2023-10-20T10:13:09.993Z,23.80
2023-10-20T10:15:59.135Z,21.60
2023-10-20T10:18:46.795Z,25.00
2023-10-20T10:21:38.757Z,22.60
2023-10-20T10:24:26.239Z,24.10
2023-10-20T10:27:16.789Z,23.30
2023-10-20T10:30:07.450Z,22.80
2023-10-20T10:32:55.628Z,37.10
2023-10-20T10:35:43.068Z,28.20
2023-10-20T10:38:32.327Z,35.90
2023-10-20T10:41:24.208Z,28.90
2023-10-20T10:44:11.913Z,33.00
2023-10-20T10:46:59.580Z,25.80
2023-10-20T10:49:50.248Z,24.10
2023-10-20T10:52:37.465Z,28.20
2023-10-20T10:55:25.373Z,26.50
2023-10-20T10:58:14.516Z,27.10
2023-10-20T11:01:03.277Z,30.20
2023-10-20T11:03:50.824Z,42.50
2023-10-20T11:06:38.710Z,31.30
2023-10-20T11:09:28.047Z,23.50
2023-10-20T11:12:15.215Z,32.70
2023-10-20T11:15:06.820Z,22.80
2023-10-20T11:17:56.046Z,21.10
2023-10-20T11:20:48.133Z,22.90
2023-10-20T11:23:36.087Z,22.20
2023-10-20T11:26:25.296Z,20.70
2023-10-20T11:29:12.656Z,25.80
2023-10-20T11:32:08.279Z,23.30
2023-10-20T11:34:55.578Z,23.70
2023-10-20T11:37:42.786Z,25.90
2023-10-20T11:40:29.952Z,25.30
2023-10-20T11:43:17.173Z,25.80
2023-10-20T11:46:06.403Z,24.70
2023-10-20T11:48:53.778Z,23.30
2023-10-20T11:51:41.099Z,23.00
2023-10-20T11:54:28.525Z,26.00
2023-10-20T11:57:16.167Z,22.40
2023-10-20T12:00:08.070Z,21.80
2023-10-20T12:03:01.144Z,23.30
2023-10-20T12:05:48.569Z,21.40
2023-10-20T12:08:35.816Z,23.30
2023-10-20T12:11:23.107Z,21.10
2023-10-20T12:14:10.335Z,23.20
2023-10-20T12:16:57.952Z,24.70
2023-10-20T12:19:45.967Z,24.00
2023-10-20T12:22:35.053Z,23.90
2023-10-20T12:25:22.530Z,40.00
2023-10-20T12:28:11.135Z,22.80
2023-10-20T12:31:00.111Z,27.30
2023-10-20T12:33:47.646Z,21.80
2023-10-20T12:36:36.388Z,23.70
2023-10-20T12:39:23.541Z,23.20
2023-10-20T12:42:10.850Z,22.20
2023-10-20T12:45:01.237Z,23.40
2023-10-20T12:47:48.610Z,18.50
2023-10-20T12:50:36.701Z,21.40
2023-10-20T12:53:24.312Z,20.70
2023-10-20T12:56:11.617Z,19.60
2023-10-20T12:58:59.170Z,26.00
2023-10-20T13:01:47.476Z,21.00
2023-10-20T13:04:34.867Z,27.00
2023-10-20T13:07:24.417Z,19.90
2023-10-20T13:10:11.767Z,20.10
2023-10-20T13:13:00.736Z,20.50
2023-10-20T13:15:48.016Z,17.70
2023-10-20T13:18:36.355Z,20.80
2023-10-20T13:21:24.871Z,20.50
2023-10-20T13:24:12.270Z,18.30
2023-10-20T13:27:00.625Z,17.50
2023-10-20T13:29:47.902Z,15.90
2023-10-20T13:32:35.124Z,18.00
2023-10-20T13:35:22.392Z,16.30
2023-10-20T13:40:59.999Z,17.30
2023-10-20T13:43:47.226Z,18.70
2023-10-20T13:46:34.679Z,17.10
2023-10-20T13:49:21.967Z,17.20
2023-10-20T13:52:09.267Z,20.70
2023-10-20T13:54:56.897Z,20.20
2023-10-20T13:57:44.223Z,18.80
2023-10-20T14:00:34.242Z,20.40
2023-10-20T14:03:21.920Z,18.70
2023-10-20T14:06:11.205Z,18.80
2023-10-20T14:08:59.006Z,18.70
2023-10-20T14:11:46.605Z,19.60
2023-10-20T14:14:33.863Z,19.20
2023-10-20T14:17:21.198Z,17.80
2023-10-20T14:20:09.486Z,16.90
2023-10-20T14:22:56.620Z,17.20
2023-10-20T14:25:44.673Z,16.80
2023-10-20T14:28:32.140Z,17.60
2023-10-20T14:31:21.122Z,19.80
2023-10-20T14:34:08.354Z,20.90
2023-10-20T14:36:55.550Z,20.20
2023-10-20T14:39:42.880Z,18.50
2023-10-20T14:42:30.051Z,18.90
2023-10-20T14:45:17.594Z,18.70
2023-10-20T14:48:05.156Z,18.50
2023-10-20T14:50:53.346Z,18.20
2023-10-20T14:53:42.514Z,17.00
2023-10-20T14:56:29.817Z,16.70
2023-10-20T14:59:17.131Z,16.50
2023-10-20T15:02:04.488Z,18.30
2023-10-20T15:04:51.787Z,19.00
2023-10-20T15:07:40.697Z,17.40
2023-10-20T15:10:28.773Z,21.90
2023-10-20T15:13:15.973Z,16.20
2023-10-20T15:16:05.229Z,15.90
2023-10-20T15:18:52.718Z,16.30
2023-10-20T15:21:40.053Z,15.10
2023-10-20T15:24:27.338Z,16.50
2023-10-20T15:27:15.760Z,19.60
2023-10-20T15:30:05.290Z,18.50
2023-10-20T15:32:52.551Z,17.10
2023-10-20T15:35:40.992Z,17.70
2023-10-20T15:38:29.130Z,15.90
2023-10-20T15:41:18.430Z,14.90
2023-10-20T15:44:05.612Z,14.70
2023-10-20T15:46:52.784Z,13.40
2023-10-20T15:49:40.615Z,12.70
2023-10-20T15:52:28.042Z,13.70
2023-10-20T15:55:17.231Z,13.80
2023-10-20T15:58:04.910Z,13.70
2023-10-20T16:00:58.232Z,14.30
2023-10-20T16:03:46.041Z,12.80
2023-10-20T16:06:33.557Z,13.50
2023-10-20T16:09:23.662Z,13.80
2023-10-20T16:12:10.924Z,13.20
2023-10-20T16:14:58.129Z,15.50
2023-10-20T16:17:45.682Z,10.70
2023-10-20T16:20:33.698Z,11.20
2023-10-20T16:23:22.137Z,11.30
2023-10-20T16:26:11.812Z,13.00
2023-10-20T16:28:59.006Z,12.00
2023-10-20T16:31:46.202Z,11.80
2023-10-20T16:34:33.570Z,11.90
2023-10-20T16:37:20.761Z,12.50
2023-10-20T16:40:08.563Z,10.80
2023-10-20T16:42:55.883Z,11.50
2023-10-20T16:45:43.219Z,17.40
2023-10-20T16:48:34.418Z,12.20
2023-10-20T16:51:21.681Z,14.00
2023-10-20T16:54:08.902Z,11.50
2023-10-20T16:56:56.171Z,11.60
2023-10-20T16:59:43.446Z,12.40
2023-10-20T17:02:30.780Z,11.70
2023-10-20T17:05:18.180Z,13.70
2023-10-20T17:08:05.635Z,12.70
2023-10-20T17:10:52.817Z,14.00
2023-10-20T17:13:40.157Z,15.20
2023-10-20T17:16:27.422Z,12.70
2023-10-20T17:19:15.154Z,12.30
2023-10-20T17:22:03.826Z,11.10
2023-10-20T17:24:51.233Z,13.10
2023-10-20T17:27:38.448Z,12.50
2023-10-20T17:30:27.060Z,13.80
2023-10-20T17:33:14.503Z,12.00
2023-10-20T17:36:04.435Z,11.10
2023-10-20T17:38:54.641Z,11.20
2023-10-20T17:41:41.897Z,12.00
2023-10-20T17:44:29.264Z,13.00
2023-10-20T17:47:16.669Z,13.50
2023-10-20T17:50:05.409Z,12.00
2023-10-20T17:52:55.092Z,12.30
2023-10-20T17:55:42.509Z,12.20
2023-10-20T17:58:30.893Z,12.50
2023-10-20T18:01:18.252Z,12.30
2023-10-20T18:04:06.091Z,12.40
2023-10-20T18:06:53.523Z,18.70
2023-10-20T18:09:40.697Z,12.00
2023-10-20T18:12:28.517Z,14.30
2023-10-20T18:15:16.850Z,14.20
2023-10-20T18:18:04.495Z,12.90
2023-10-20T18:20:55.871Z,13.30
2023-10-20T18:23:43.424Z,15.00
2023-10-20T18:26:30.838Z,14.00
2023-10-20T18:29:18.357Z,14.80
2023-10-20T18:32:06.586Z,16.00
2023-10-20T18:34:53.858Z,13.80
2023-10-20T18:37:41.266Z,12.70
2023-10-20T18:40:28.708Z,13.30
2023-10-20T18:43:24.207Z,12.90
2023-10-20T18:46:11.945Z,13.70
2023-10-20T18:48:59.677Z,14.10
2023-10-20T18:51:47.295Z,13.10
2023-10-20T18:54:34.841Z,14.00
2023-10-20T18:57:22.262Z,16.40
2023-10-20T19:00:11.035Z,15.60
2023-10-20T19:02:58.920Z,15.90
2023-10-20T19:05:49.044Z,14.10
2023-10-20T19:08:37.613Z,12.70
2023-10-20T19:11:25.212Z,16.70
2023-10-20T19:14:12.707Z,13.90
2023-10-20T19:17:00.286Z,12.20
2023-10-20T19:19:50.602Z,12.80
2023-10-20T19:22:38.099Z,13.30
2023-10-20T19:25:25.548Z,13.90
2023-10-20T19:28:13.369Z,14.30
2023-10-20T19:31:02.117Z,16.80
2023-10-20T19:33:50.875Z,14.10
2023-10-20T19:36:38.652Z,15.50
2023-10-20T19:39:26.220Z,15.40
2023-10-20T19:42:14.017Z,14.30
2023-10-20T19:45:02.383Z,14.90
2023-10-20T19:47:50.183Z,13.60
2023-10-20T19:50:41.481Z,12.50
2023-10-20T19:53:29.145Z,14.00
2023-10-20T19:56:16.640Z,12.90
2023-10-20T19:59:04.357Z,14.50
2023-10-20T20:01:51.926Z,14.30
2023-10-20T20:04:39.540Z,14.10
2023-10-20T20:07:28.177Z,14.40
2023-10-20T20:10:16.020Z,14.70
2023-10-20T20:13:04.459Z,12.80
2023-10-20T20:15:51.951Z,15.40
2023-10-20T20:18:40.342Z,13.90
2023-10-20T20:21:28.054Z,14.50
2023-10-20T20:24:15.561Z,13.20
2023-10-20T20:27:03.376Z,12.60
2023-10-20T20:29:50.896Z,13.40
2023-10-20T20:32:38.166Z,14.90
2023-10-20T20:35:25.366Z,13.10
2023-10-20T20:38:12.814Z,14.80
2023-10-20T20:41:04.661Z,15.40
2023-10-20T20:43:51.905Z,15.60
2023-10-20T20:46:39.265Z,16.30
2023-10-20T20:49:27.201Z,16.70
2023-10-20T20:52:14.373Z,18.00
2023-10-20T20:55:01.821Z,15.30
2023-10-20T20:57:49.063Z,14.60
2023-10-20T21:00:36.696Z,13.80
2023-10-20T21:03:24.056Z,15.90
2023-10-20T21:06:11.559Z,13.90
2023-10-20T21:08:58.830Z,14.80
2023-10-20T21:11:46.100Z,16.90
2023-10-20T21:14:33.288Z,15.20
2023-10-20T21:17:20.518Z,15.80
2023-10-20T21:20:08.886Z,15.20
2023-10-20T21:22:56.034Z,16.20
2023-10-20T21:25:43.356Z,13.70
2023-10-20T21:28:30.539Z,14.80
2023-10-20T21:31:17.948Z,15.00
2023-10-20T21:34:05.155Z,15.50
2023-10-20T21:36:52.340Z,14.50
2023-10-20T21:39:39.617Z,14.00
2023-10-20T21:42:26.922Z,15.10
2023-10-20T21:45:14.171Z,15.10
2023-10-20T21:48:01.548Z,15.40
2023-10-20T21:50:55.628Z,15.30
2023-10-20T21:53:42.945Z,15.00
2023-10-20T21:56:30.198Z,16.30
2023-10-20T21:59:17.444Z,16.50
2023-10-20T22:02:09.786Z,17.10
2023-10-20T22:04:57.713Z,14.90
2023-10-20T22:07:44.914Z,15.30
2023-10-20T22:10:32.193Z,15.00
2023-10-20T22:13:19.976Z,13.70
2023-10-20T22:16:07.589Z,16.10
2023-10-20T22:18:54.808Z,14.60
2023-10-20T22:21:42.085Z,16.80
2023-10-20T22:24:29.259Z,16.00
2023-10-20T22:27:16.645Z,16.80
2023-10-20T22:30:06.254Z,19.10
2023-10-20T22:32:53.817Z,16.40
2023-10-20T22:35:41.219Z,15.50
2023-10-20T22:38:28.509Z,18.10
2023-10-20T22:41:15.785Z,15.90
2023-10-20T22:44:03.199Z,17.80
2023-10-20T22:46:50.454Z,16.60
2023-10-20T22:49:37.892Z,16.80
2023-10-20T22:52:25.142Z,16.80
2023-10-20T22:55:13.226Z,18.80
2023-10-20T22:58:00.499Z,20.20
2023-10-20T23:00:47.816Z,18.60
2023-10-20T23:03:35.535Z,18.70
2023-10-20T23:06:22.787Z,17.40
2023-10-20T23:09:10.022Z,17.50
2023-10-20T23:11:57.364Z,15.00
2023-10-20T23:14:44.649Z,15.60
2023-10-20T23:17:31.912Z,17.00
2023-10-20T23:20:19.089Z,18.20
2023-10-20T23:23:06.225Z,18.00
2023-10-20T23:25:53.950Z,18.50
2023-10-20T23:28:41.153Z,17.40
2023-10-20T23:31:28.468Z,18.40
2023-10-20T23:34:15.660Z,22.10
2023-10-20T23:37:03.773Z,21.40
2023-10-20T23:39:51.341Z,17.70
2023-10-20T23:42:38.532Z,17.80
2023-10-20T23:45:25.761Z,17.80
2023-10-20T23:48:13.430Z,16.40
2023-10-20T23:51:00.714Z,19.20
2023-10-20T23:53:48.437Z,16.80
2023-10-20T23:56:35.636Z,16.70
2023-10-20T23:59:22.828Z,18.10
